sensor_id;sensor_type;location;lat;lon;timestamp;P1;durP1;ratioP1;P2;durP2;ratioP2
57319;SDS011;43158;51.026;18.190;2022-10-22T00:00:00;16.40;;;12.80;;
57319;SDS011;43158;51.026;18.190;2022-10-22T00:02:26;13.00;;;11.60;;
57319;SDS011;43158;51.026;18.190;2022-10-22T00:04:53;18.00;;;12.60;;
57319;SDS011;43158;51.026;18.190;2022-10-22T00:07:21;16.70;;;12.00;;
57319;SDS011;43158;51.026;18.190;2022-10-22T00:09:47;14.10;;;12.70;;
57319;SDS011;43158;51.026;18.190;2022-10-22T00:12:14;14.10;;;12.50;;
57319;SDS011;43158;51.026;18.190;2022-10-22T00:14:41;13.70;;;12.20;;
57319;SDS011;43158;51.026;18.190;2022-10-22T00:17:07;15.20;;;12.10;;
57319;SDS011;43158;51.026;18.190;2022-10-22T00:19:34;13.40;;;12.20;;
57319;SDS011;43158;51.026;18.190;2022-10-22T00:22:00;14.90;;;12.50;;
57319;SDS011;43158;51.026;18.190;2022-10-22T00:26:57;12.40;;;11.20;;
57319;SDS011;43158;51.026;18.190;2022-10-22T00:29:23;14.10;;;12.00;;
57319;SDS011;43158;51.026;18.190;2022-10-22T00:31:49;14.20;;;12.80;;
57319;SDS011;43158;51.026;18.190;2022-10-22T00:34:19;13.10;;;11.40;;
57319;SDS011;43158;51.026;18.190;2022-10-22T00:36:47;15.80;;;12.60;;
57319;SDS011;43158;51.026;18.190;2022-10-22T00:39:14;13.40;;;11.30;;
57319;SDS011;43158;51.026;18.190;2022-10-22T00:41:42;16.30;;;11.40;;
57319;SDS011;43158;51.026;18.190;2022-10-22T00:47:13;12.90;;;11.60;;
57319;SDS011;43158;51.026;18.190;2022-10-22T00:49:41;12.30;;;11.10;;
57319;SDS011;43158;51.026;18.190;2022-10-22T00:52:08;14.00;;;11.30;;
57319;SDS011;43158;51.026;18.190;2022-10-22T00:54:35;12.80;;;11.50;;
57319;SDS011;43158;51.026;18.190;2022-10-22T00:57:02;13.80;;;12.00;;
57319;SDS011;43158;51.026;18.190;2022-10-22T00:59:29;11.50;;;10.40;;
57319;SDS011;43158;51.026;18.190;2022-10-22T01:01:56;13.20;;;12.00;;
57319;SDS011;43158;51.026;18.190;2022-10-22T01:04:22;14.60;;;11.70;;
57319;SDS011;43158;51.026;18.190;2022-10-22T01:06:49;13.30;;;11.60;;
57319;SDS011;43158;51.026;18.190;2022-10-22T01:15:17;16.60;;;13.30;;
57319;SDS011;43158;51.026;18.190;2022-10-22T01:31:45;15.80;;;12.60;;
57319;SDS011;43158;51.026;18.190;2022-10-22T01:39:39;14.30;;;12.60;;
57319;SDS011;43158;51.026;18.190;2022-10-22T01:42:08;13.70;;;12.20;;
57319;SDS011;43158;51.026;18.190;2022-10-22T01:44:39;13.70;;;12.30;;
57319;SDS011;43158;51.026;18.190;2022-10-22T01:50:25;14.50;;;12.80;;
57319;SDS011;43158;51.026;18.190;2022-10-22T01:55:46;14.10;;;12.60;;
57319;SDS011;43158;51.026;18.190;2022-10-22T01:58:31;14.40;;;12.50;;
57319;SDS011;43158;51.026;18.190;2022-10-22T02:07:16;13.30;;;11.60;;
57319;SDS011;43158;51.026;18.190;2022-10-22T02:09:46;14.00;;;12.50;;
57319;SDS011;43158;51.026;18.190;2022-10-22T02:12:14;15.70;;;12.70;;
57319;SDS011;43158;51.026;18.190;2022-10-22T02:14:42;12.10;;;10.90;;
57319;SDS011;43158;51.026;18.190;2022-10-22T02:17:10;13.60;;;11.90;;
57319;SDS011;43158;51.026;18.190;2022-10-22T02:19:45;13.70;;;12.10;;
57319;SDS011;43158;51.026;18.190;2022-10-22T02:22:16;15.20;;;11.90;;
57319;SDS011;43158;51.026;18.190;2022-10-22T02:24:43;13.20;;;11.90;;
57319;SDS011;43158;51.026;18.190;2022-10-22T02:27:26;16.90;;;11.80;;
57319;SDS011;43158;51.026;18.190;2022-10-22T02:32:27;16.10;;;12.00;;
57319;SDS011;43158;51.026;18.190;2022-10-22T02:34:58;12.20;;;11.00;;
57319;SDS011;43158;51.026;18.190;2022-10-22T02:37:25;14.10;;;12.40;;
57319;SDS011;43158;51.026;18.190;2022-10-22T02:39:52;14.30;;;12.70;;
57319;SDS011;43158;51.026;18.190;2022-10-22T02:42:22;15.20;;;12.40;;
57319;SDS011;43158;51.026;18.190;2022-10-22T02:44:49;14.00;;;11.80;;
57319;SDS011;43158;51.026;18.190;2022-10-22T02:47:25;12.60;;;11.30;;
57319;SDS011;43158;51.026;18.190;2022-10-22T02:49:52;13.20;;;11.40;;
57319;SDS011;43158;51.026;18.190;2022-10-22T02:52:18;11.90;;;10.50;;
57319;SDS011;43158;51.026;18.190;2022-10-22T02:54:45;11.30;;;10.20;;
57319;SDS011;43158;51.026;18.190;2022-10-22T02:57:11;13.10;;;11.80;;
57319;SDS011;43158;51.026;18.190;2022-10-22T02:59:38;19.20;;;13.10;;
57319;SDS011;43158;51.026;18.190;2022-10-22T03:02:04;15.20;;;11.30;;
57319;SDS011;43158;51.026;18.190;2022-10-22T03:04:31;12.80;;;11.50;;
57319;SDS011;43158;51.026;18.190;2022-10-22T03:06:57;17.00;;;11.80;;
57319;SDS011;43158;51.026;18.190;2022-10-22T03:09:25;14.10;;;11.80;;
57319;SDS011;43158;51.026;18.190;2022-10-22T03:11:52;14.00;;;11.90;;
57319;SDS011;43158;51.026;18.190;2022-10-22T03:14:18;12.80;;;11.00;;
57319;SDS011;43158;51.026;18.190;2022-10-22T03:16:45;13.30;;;11.80;;
57319;SDS011;43158;51.026;18.190;2022-10-22T03:19:11;14.90;;;11.30;;
57319;SDS011;43158;51.026;18.190;2022-10-22T03:24:17;13.10;;;11.90;;
57319;SDS011;43158;51.026;18.190;2022-10-22T03:26:52;12.90;;;11.50;;
57319;SDS011;43158;51.026;18.190;2022-10-22T03:29:20;11.60;;;10.40;;
57319;SDS011;43158;51.026;18.190;2022-10-22T03:31:47;12.50;;;11.20;;
57319;SDS011;43158;51.026;18.190;2022-10-22T03:34:14;13.50;;;12.20;;
57319;SDS011;43158;51.026;18.190;2022-10-22T03:36:40;13.50;;;12.20;;
57319;SDS011;43158;51.026;18.190;2022-10-22T03:39:07;12.90;;;11.70;;
57319;SDS011;43158;51.026;18.190;2022-10-22T03:41:34;13.00;;;11.70;;
57319;SDS011;43158;51.026;18.190;2022-10-22T03:44:02;15.70;;;10.80;;
57319;SDS011;43158;51.026;18.190;2022-10-22T03:46:29;12.20;;;9.80;;
57319;SDS011;43158;51.026;18.190;2022-10-22T03:48:56;12.90;;;10.90;;
57319;SDS011;43158;51.026;18.190;2022-10-22T03:51:25;11.50;;;10.30;;
57319;SDS011;43158;51.026;18.190;2022-10-22T03:53:52;11.30;;;10.30;;
57319;SDS011;43158;51.026;18.190;2022-10-22T03:56:19;12.40;;;11.10;;
57319;SDS011;43158;51.026;18.190;2022-10-22T03:58:46;16.20;;;12.00;;
57319;SDS011;43158;51.026;18.190;2022-10-22T04:01:13;14.30;;;12.80;;
57319;SDS011;43158;51.026;18.190;2022-10-22T04:03:40;13.90;;;12.40;;
57319;SDS011;43158;51.026;18.190;2022-10-22T04:06:11;13.80;;;12.10;;
57319;SDS011;43158;51.026;18.190;2022-10-22T04:08:39;12.00;;;10.80;;
57319;SDS011;43158;51.026;18.190;2022-10-22T04:11:06;12.40;;;11.30;;
57319;SDS011;43158;51.026;18.190;2022-10-22T04:13:33;12.50;;;11.30;;
57319;SDS011;43158;51.026;18.190;2022-10-22T04:16:12;12.20;;;10.90;;
57319;SDS011;43158;51.026;18.190;2022-10-22T04:18:40;14.60;;;11.80;;
57319;SDS011;43158;51.026;18.190;2022-10-22T04:21:07;12.80;;;11.00;;
57319;SDS011;43158;51.026;18.190;2022-10-22T04:23:34;13.60;;;12.10;;
57319;SDS011;43158;51.026;18.190;2022-10-22T04:26:02;14.30;;;12.90;;
57319;SDS011;43158;51.026;18.190;2022-10-22T04:28:29;15.30;;;13.80;;
57319;SDS011;43158;51.026;18.190;2022-10-22T04:30:55;15.40;;;13.80;;
57319;SDS011;43158;51.026;18.190;2022-10-22T04:33:24;19.30;;;13.60;;
57319;SDS011;43158;51.026;18.190;2022-10-22T04:36:12;19.00;;;13.80;;
57319;SDS011;43158;51.026;18.190;2022-10-22T04:38:40;13.00;;;11.80;;
57319;SDS011;43158;51.026;18.190;2022-10-22T04:41:29;14.40;;;11.40;;
57319;SDS011;43158;51.026;18.190;2022-10-22T04:43:54;13.40;;;12.00;;
57319;SDS011;43158;51.026;18.190;2022-10-22T04:46:23;12.70;;;11.40;;
57319;SDS011;43158;51.026;18.190;2022-10-22T04:48:50;12.50;;;11.30;;
57319;SDS011;43158;51.026;18.190;2022-10-22T04:51:18;13.50;;;12.10;;
57319;SDS011;43158;51.026;18.190;2022-10-22T04:53:45;13.50;;;12.10;;
57319;SDS011;43158;51.026;18.190;2022-10-22T04:56:16;14.80;;;12.60;;
57319;SDS011;43158;51.026;18.190;2022-10-22T04:58:47;13.90;;;11.70;;
57319;SDS011;43158;51.026;18.190;2022-10-22T05:01:19;15.00;;;13.30;;
57319;SDS011;43158;51.026;18.190;2022-10-22T05:03:47;12.80;;;11.50;;
57319;SDS011;43158;51.026;18.190;2022-10-22T05:06:14;12.60;;;11.30;;
57319;SDS011;43158;51.026;18.190;2022-10-22T05:08:41;13.60;;;12.10;;
57319;SDS011;43158;51.026;18.190;2022-10-22T05:11:17;15.10;;;12.90;;
57319;SDS011;43158;51.026;18.190;2022-10-22T05:13:46;14.20;;;12.80;;
57319;SDS011;43158;51.026;18.190;2022-10-22T05:16:13;13.60;;;11.80;;
57319;SDS011;43158;51.026;18.190;2022-10-22T05:18:41;17.20;;;12.40;;
57319;SDS011;43158;51.026;18.190;2022-10-22T05:21:19;15.80;;;13.60;;
57319;SDS011;43158;51.026;18.190;2022-10-22T05:23:47;14.60;;;13.10;;
57319;SDS011;43158;51.026;18.190;2022-10-22T05:26:15;14.20;;;12.60;;
57319;SDS011;43158;51.026;18.190;2022-10-22T05:28:43;13.70;;;11.70;;
57319;SDS011;43158;51.026;18.190;2022-10-22T05:31:11;16.60;;;12.70;;
57319;SDS011;43158;51.026;18.190;2022-10-22T05:33:38;12.70;;;11.50;;
57319;SDS011;43158;51.026;18.190;2022-10-22T05:36:06;14.40;;;12.30;;
57319;SDS011;43158;51.026;18.190;2022-10-22T05:38:33;13.80;;;12.40;;
57319;SDS011;43158;51.026;18.190;2022-10-22T05:43:30;13.90;;;12.50;;
57319;SDS011;43158;51.026;18.190;2022-10-22T05:46:00;14.60;;;13.00;;
57319;SDS011;43158;51.026;18.190;2022-10-22T05:48:29;13.20;;;11.60;;
57319;SDS011;43158;51.026;18.190;2022-10-22T05:50:56;15.50;;;12.70;;
57319;SDS011;43158;51.026;18.190;2022-10-22T05:53:23;14.70;;;13.20;;
57319;SDS011;43158;51.026;18.190;2022-10-22T05:55:49;15.70;;;13.80;;
57319;SDS011;43158;51.026;18.190;2022-10-22T05:58:16;18.70;;;12.80;;
57319;SDS011;43158;51.026;18.190;2022-10-22T06:00:42;15.00;;;13.40;;
57319;SDS011;43158;51.026;18.190;2022-10-22T06:03:09;15.00;;;13.40;;
57319;SDS011;43158;51.026;18.190;2022-10-22T06:05:36;16.10;;;14.10;;
57319;SDS011;43158;51.026;18.190;2022-10-22T06:08:03;17.10;;;15.30;;
57319;SDS011;43158;51.026;18.190;2022-10-22T06:10:29;18.30;;;14.50;;
57319;SDS011;43158;51.026;18.190;2022-10-22T06:12:55;15.10;;;13.50;;
57319;SDS011;43158;51.026;18.190;2022-10-22T06:15:22;15.40;;;13.90;;
57319;SDS011;43158;51.026;18.190;2022-10-22T06:17:48;16.00;;;13.60;;
57319;SDS011;43158;51.026;18.190;2022-10-22T06:20:14;14.90;;;13.30;;
57319;SDS011;43158;51.026;18.190;2022-10-22T06:22:42;14.90;;;13.50;;
57319;SDS011;43158;51.026;18.190;2022-10-22T06:25:08;16.50;;;13.80;;
57319;SDS011;43158;51.026;18.190;2022-10-22T06:27:35;15.90;;;13.70;;
57319;SDS011;43158;51.026;18.190;2022-10-22T06:30:02;19.10;;;13.00;;
57319;SDS011;43158;51.026;18.190;2022-10-22T06:32:29;13.90;;;12.50;;
57319;SDS011;43158;51.026;18.190;2022-10-22T06:34:56;14.50;;;12.30;;
57319;SDS011;43158;51.026;18.190;2022-10-22T06:37:24;14.40;;;12.90;;
57319;SDS011;43158;51.026;18.190;2022-10-22T06:39:52;14.10;;;12.40;;
57319;SDS011;43158;51.026;18.190;2022-10-22T06:42:19;12.80;;;11.60;;
57319;SDS011;43158;51.026;18.190;2022-10-22T06:44:45;16.50;;;13.80;;
57319;SDS011;43158;51.026;18.190;2022-10-22T06:47:12;14.60;;;12.70;;
57319;SDS011;43158;51.026;18.190;2022-10-22T06:49:39;14.40;;;12.90;;
57319;SDS011;43158;51.026;18.190;2022-10-22T06:52:07;13.90;;;12.50;;
57319;SDS011;43158;51.026;18.190;2022-10-22T06:54:34;13.80;;;12.40;;
57319;SDS011;43158;51.026;18.190;2022-10-22T06:57:00;12.80;;;11.50;;
57319;SDS011;43158;51.026;18.190;2022-10-22T06:59:27;15.70;;;13.00;;
57319;SDS011;43158;51.026;18.190;2022-10-22T07:01:53;17.00;;;12.40;;
57319;SDS011;43158;51.026;18.190;2022-10-22T07:04:19;16.30;;;14.70;;
57319;SDS011;43158;51.026;18.190;2022-10-22T07:06:46;15.90;;;14.30;;
57319;SDS011;43158;51.026;18.190;2022-10-22T07:09:12;15.20;;;13.60;;
57319;SDS011;43158;51.026;18.190;2022-10-22T07:11:43;14.80;;;13.00;;
57319;SDS011;43158;51.026;18.190;2022-10-22T07:14:10;15.00;;;12.80;;
57319;SDS011;43158;51.026;18.190;2022-10-22T07:16:37;15.20;;;13.10;;
57319;SDS011;43158;51.026;18.190;2022-10-22T07:19:06;16.90;;;13.90;;
57319;SDS011;43158;51.026;18.190;2022-10-22T07:21:33;15.10;;;13.30;;
57319;SDS011;43158;51.026;18.190;2022-10-22T07:23:59;14.90;;;12.90;;
57319;SDS011;43158;51.026;18.190;2022-10-22T07:26:35;14.30;;;12.80;;
57319;SDS011;43158;51.026;18.190;2022-10-22T07:29:11;15.10;;;13.60;;
57319;SDS011;43158;51.026;18.190;2022-10-22T07:31:40;19.50;;;13.10;;
57319;SDS011;43158;51.026;18.190;2022-10-22T07:34:07;16.40;;;12.80;;
57319;SDS011;43158;51.026;18.190;2022-10-22T07:36:34;16.00;;;14.40;;
57319;SDS011;43158;51.026;18.190;2022-10-22T07:39:01;15.10;;;13.40;;
57319;SDS011;43158;51.026;18.190;2022-10-22T07:41:29;16.70;;;12.70;;
57319;SDS011;43158;51.026;18.190;2022-10-22T07:43:57;15.40;;;13.90;;
57319;SDS011;43158;51.026;18.190;2022-10-22T07:46:25;17.50;;;12.80;;
57319;SDS011;43158;51.026;18.190;2022-10-22T07:48:53;17.20;;;12.90;;
57319;SDS011;43158;51.026;18.190;2022-10-22T07:51:21;17.30;;;12.20;;
57319;SDS011;43158;51.026;18.190;2022-10-22T07:53:49;14.00;;;11.80;;
57319;SDS011;43158;51.026;18.190;2022-10-22T07:56:16;16.90;;;12.80;;
57319;SDS011;43158;51.026;18.190;2022-10-22T07:58:43;13.20;;;11.60;;
57319;SDS011;43158;51.026;18.190;2022-10-22T08:01:09;18.20;;;12.90;;
57319;SDS011;43158;51.026;18.190;2022-10-22T08:03:36;13.80;;;11.70;;
57319;SDS011;43158;51.026;18.190;2022-10-22T08:06:02;13.10;;;11.10;;
57319;SDS011;43158;51.026;18.190;2022-10-22T08:08:29;14.20;;;11.60;;
57319;SDS011;43158;51.026;18.190;2022-10-22T08:11:16;12.80;;;11.60;;
57319;SDS011;43158;51.026;18.190;2022-10-22T08:13:42;13.60;;;12.30;;
57319;SDS011;43158;51.026;18.190;2022-10-22T08:16:10;12.00;;;10.80;;
57319;SDS011;43158;51.026;18.190;2022-10-22T08:18:38;13.40;;;11.50;;
57319;SDS011;43158;51.026;18.190;2022-10-22T08:21:04;14.80;;;11.30;;
57319;SDS011;43158;51.026;18.190;2022-10-22T08:23:32;12.30;;;11.10;;
57319;SDS011;43158;51.026;18.190;2022-10-22T08:25:59;13.90;;;11.10;;
57319;SDS011;43158;51.026;18.190;2022-10-22T08:28:25;14.10;;;11.60;;
57319;SDS011;43158;51.026;18.190;2022-10-22T08:30:53;11.80;;;10.50;;
57319;SDS011;43158;51.026;18.190;2022-10-22T08:33:19;12.70;;;11.40;;
57319;SDS011;43158;51.026;18.190;2022-10-22T08:35:52;12.80;;;10.80;;
57319;SDS011;43158;51.026;18.190;2022-10-22T08:38:18;12.60;;;11.00;;
57319;SDS011;43158;51.026;18.190;2022-10-22T08:40:49;17.00;;;12.20;;
57319;SDS011;43158;51.026;18.190;2022-10-22T08:43:25;12.40;;;11.20;;
57319;SDS011;43158;51.026;18.190;2022-10-22T08:48:53;15.00;;;11.60;;
57319;SDS011;43158;51.026;18.190;2022-10-22T08:51:30;13.10;;;11.70;;
57319;SDS011;43158;51.026;18.190;2022-10-22T08:56:59;14.70;;;12.40;;
57319;SDS011;43158;51.026;18.190;2022-10-22T08:59:36;14.10;;;12.50;;
57319;SDS011;43158;51.026;18.190;2022-10-22T09:02:12;18.30;;;12.90;;
57319;SDS011;43158;51.026;18.190;2022-10-22T09:04:50;15.70;;;13.50;;
57319;SDS011;43158;51.026;18.190;2022-10-22T09:07:28;16.10;;;14.00;;
57319;SDS011;43158;51.026;18.190;2022-10-22T09:09:55;14.50;;;12.80;;
57319;SDS011;43158;51.026;18.190;2022-10-22T09:12:23;13.90;;;12.50;;
57319;SDS011;43158;51.026;18.190;2022-10-22T09:14:52;15.90;;;14.40;;
57319;SDS011;43158;51.026;18.190;2022-10-22T09:17:32;16.90;;;14.90;;
57319;SDS011;43158;51.026;18.190;2022-10-22T09:20:24;16.00;;;12.90;;
57319;SDS011;43158;51.026;18.190;2022-10-22T09:23:04;13.60;;;12.10;;
57319;SDS011;43158;51.026;18.190;2022-10-22T09:25:36;16.00;;;14.10;;
57319;SDS011;43158;51.026;18.190;2022-10-22T09:28:03;23.90;;;13.40;;
57319;SDS011;43158;51.026;18.190;2022-10-22T09:30:33;12.70;;;11.50;;
57319;SDS011;43158;51.026;18.190;2022-10-22T09:33:06;18.60;;;12.80;;
57319;SDS011;43158;51.026;18.190;2022-10-22T09:35:45;16.30;;;13.50;;
57319;SDS011;43158;51.026;18.190;2022-10-22T09:38:14;13.60;;;12.20;;
57319;SDS011;43158;51.026;18.190;2022-10-22T09:40:47;14.10;;;12.70;;
57319;SDS011;43158;51.026;18.190;2022-10-22T09:43:16;13.10;;;11.80;;
57319;SDS011;43158;51.026;18.190;2022-10-22T09:45:43;13.20;;;12.00;;
57319;SDS011;43158;51.026;18.190;2022-10-22T09:48:16;13.30;;;11.80;;
57319;SDS011;43158;51.026;18.190;2022-10-22T09:53:43;14.40;;;12.60;;
57319;SDS011;43158;51.026;18.190;2022-10-22T09:56:33;13.60;;;12.20;;
57319;SDS011;43158;51.026;18.190;2022-10-22T09:59:01;14.90;;;13.40;;
57319;SDS011;43158;51.026;18.190;2022-10-22T10:01:30;20.50;;;13.70;;
57319;SDS011;43158;51.026;18.190;2022-10-22T10:04:03;16.50;;;14.20;;
57319;SDS011;43158;51.026;18.190;2022-10-22T10:06:33;18.70;;;14.00;;
57319;SDS011;43158;51.026;18.190;2022-10-22T10:09:00;16.70;;;12.60;;
57319;SDS011;43158;51.026;18.190;2022-10-22T10:11:41;13.80;;;11.70;;
57319;SDS011;43158;51.026;18.190;2022-10-22T10:19:50;16.50;;;12.10;;
57319;SDS011;43158;51.026;18.190;2022-10-22T10:28:12;16.10;;;14.50;;
57319;SDS011;43158;51.026;18.190;2022-10-22T10:30:58;18.80;;;14.30;;
57319;SDS011;43158;51.026;18.190;2022-10-22T10:42:47;17.90;;;16.10;;
57319;SDS011;43158;51.026;18.190;2022-10-22T10:53:32;17.40;;;15.50;;
57319;SDS011;43158;51.026;18.190;2022-10-22T10:59:09;15.80;;;14.30;;
57319;SDS011;43158;51.026;18.190;2022-10-22T11:01:46;15.20;;;13.80;;
57319;SDS011;43158;51.026;18.190;2022-10-22T11:07:21;13.70;;;12.30;;
57319;SDS011;43158;51.026;18.190;2022-10-22T11:09:53;14.20;;;12.80;;
57319;SDS011;43158;51.026;18.190;2022-10-22T11:12:29;14.10;;;12.70;;
57319;SDS011;43158;51.026;18.190;2022-10-22T11:18:13;14.90;;;13.00;;
57319;SDS011;43158;51.026;18.190;2022-10-22T11:21:02;14.90;;;13.30;;
57319;SDS011;43158;51.026;18.190;2022-10-22T11:23:47;15.20;;;13.80;;
57319;SDS011;43158;51.026;18.190;2022-10-22T11:26:24;15.60;;;14.00;;
57319;SDS011;43158;51.026;18.190;2022-10-22T11:29:16;14.10;;;12.70;;
57319;SDS011;43158;51.026;18.190;2022-10-22T11:31:48;15.10;;;12.90;;
57319;SDS011;43158;51.026;18.190;2022-10-22T11:34:20;18.30;;;14.20;;
57319;SDS011;43158;51.026;18.190;2022-10-22T11:36:52;16.10;;;14.50;;
57319;SDS011;43158;51.026;18.190;2022-10-22T11:39:28;15.30;;;13.30;;
57319;SDS011;43158;51.026;18.190;2022-10-22T11:42:05;15.20;;;13.70;;
57319;SDS011;43158;51.026;18.190;2022-10-22T11:44:45;20.70;;;15.70;;
57319;SDS011;43158;51.026;18.190;2022-10-22T11:47:25;15.90;;;14.20;;
57319;SDS011;43158;51.026;18.190;2022-10-22T11:50:01;14.80;;;12.70;;
57319;SDS011;43158;51.026;18.190;2022-10-22T11:53:01;23.40;;;15.30;;
57319;SDS011;43158;51.026;18.190;2022-10-22T11:55:42;17.50;;;12.70;;
57319;SDS011;43158;51.026;18.190;2022-10-22T12:11:19;17.50;;;15.80;;
57319;SDS011;43158;51.026;18.190;2022-10-22T12:16:47;18.00;;;16.10;;
57319;SDS011;43158;51.026;18.190;2022-10-22T12:21:53;21.00;;;18.70;;
57319;SDS011;43158;51.026;18.190;2022-10-22T12:24:21;22.60;;;16.90;;
57319;SDS011;43158;51.026;18.190;2022-10-22T12:27:03;18.30;;;16.40;;
57319;SDS011;43158;51.026;18.190;2022-10-22T12:29:40;19.70;;;15.70;;
57319;SDS011;43158;51.026;18.190;2022-10-22T12:32:09;16.50;;;14.80;;
57319;SDS011;43158;51.026;18.190;2022-10-22T12:34:43;17.00;;;13.90;;
57319;SDS011;43158;51.026;18.190;2022-10-22T12:37:15;14.80;;;13.40;;
57319;SDS011;43158;51.026;18.190;2022-10-22T12:39:43;17.50;;;14.10;;
57319;SDS011;43158;51.026;18.190;2022-10-22T12:42:15;15.40;;;13.70;;
57319;SDS011;43158;51.026;18.190;2022-10-22T12:44:43;17.00;;;14.80;;
57319;SDS011;43158;51.026;18.190;2022-10-22T12:47:14;16.60;;;14.80;;
57319;SDS011;43158;51.026;18.190;2022-10-22T12:49:47;15.70;;;14.20;;
57319;SDS011;43158;51.026;18.190;2022-10-22T12:52:20;15.30;;;13.80;;
57319;SDS011;43158;51.026;18.190;2022-10-22T12:54:49;19.70;;;15.70;;
57319;SDS011;43158;51.026;18.190;2022-10-22T12:57:20;16.20;;;14.50;;
57319;SDS011;43158;51.026;18.190;2022-10-22T12:59:54;15.30;;;13.80;;
57319;SDS011;43158;51.026;18.190;2022-10-22T13:02:24;21.10;;;16.20;;
57319;SDS011;43158;51.026;18.190;2022-10-22T13:07:42;23.10;;;17.10;;
57319;SDS011;43158;51.026;18.190;2022-10-22T13:10:23;20.20;;;18.00;;
57319;SDS011;43158;51.026;18.190;2022-10-22T13:12:56;18.70;;;16.70;;
57319;SDS011;43158;51.026;18.190;2022-10-22T13:18:06;23.20;;;20.20;;
57319;SDS011;43158;51.026;18.190;2022-10-22T13:20:57;24.10;;;21.70;;
57319;SDS011;43158;51.026;18.190;2022-10-22T13:23:32;40.70;;;36.40;;
57319;SDS011;43158;51.026;18.190;2022-10-22T13:26:15;45.60;;;41.00;;
57319;SDS011;43158;51.026;18.190;2022-10-22T13:28:48;48.40;;;43.50;;
57319;SDS011;43158;51.026;18.190;2022-10-22T13:31:20;53.60;;;46.80;;
57319;SDS011;43158;51.026;18.190;2022-10-22T13:33:58;56.80;;;50.70;;
57319;SDS011;43158;51.026;18.190;2022-10-22T13:36:26;54.90;;;49.10;;
57319;SDS011;43158;51.026;18.190;2022-10-22T13:38:55;58.80;;;52.70;;
57319;SDS011;43158;51.026;18.190;2022-10-22T13:41:26;62.10;;;54.60;;
57319;SDS011;43158;51.026;18.190;2022-10-22T13:43:57;61.70;;;55.50;;
57319;SDS011;43158;51.026;18.190;2022-10-22T13:46:24;61.70;;;55.50;;
57319;SDS011;43158;51.026;18.190;2022-10-22T13:48:53;60.90;;;54.80;;
57319;SDS011;43158;51.026;18.190;2022-10-22T13:51:21;69.40;;;61.90;;
57319;SDS011;43158;51.026;18.190;2022-10-22T13:53:49;73.40;;;65.00;;
57319;SDS011;43158;51.026;18.190;2022-10-22T13:56:17;66.30;;;59.30;;
57319;SDS011;43158;51.026;18.190;2022-10-22T13:58:44;71.50;;;63.50;;
57319;SDS011;43158;51.026;18.190;2022-10-22T14:01:19;64.30;;;57.60;;
57319;SDS011;43158;51.026;18.190;2022-10-22T14:03:48;60.40;;;54.00;;
57319;SDS011;43158;51.026;18.190;2022-10-22T14:06:15;61.20;;;54.70;;
57319;SDS011;43158;51.026;18.190;2022-10-22T14:08:43;62.90;;;54.10;;
57319;SDS011;43158;51.026;18.190;2022-10-22T14:11:11;61.50;;;53.70;;
57319;SDS011;43158;51.026;18.190;2022-10-22T14:13:37;66.50;;;54.20;;
57319;SDS011;43158;51.026;18.190;2022-10-22T14:16:05;60.30;;;53.90;;
57319;SDS011;43158;51.026;18.190;2022-10-22T14:18:32;66.20;;;55.90;;
57319;SDS011;43158;51.026;18.190;2022-10-22T14:20:59;70.00;;;56.10;;
57319;SDS011;43158;51.026;18.190;2022-10-22T14:23:30;63.90;;;57.00;;
57319;SDS011;43158;51.026;18.190;2022-10-22T14:25:57;63.10;;;56.60;;
57319;SDS011;43158;51.026;18.190;2022-10-22T14:28:24;70.80;;;63.10;;
57319;SDS011;43158;51.026;18.190;2022-10-22T14:30:50;68.30;;;59.00;;
57319;SDS011;43158;51.026;18.190;2022-10-22T14:33:24;75.90;;;66.70;;
57319;SDS011;43158;51.026;18.190;2022-10-22T14:35:55;73.40;;;65.30;;
57319;SDS011;43158;51.026;18.190;2022-10-22T14:38:21;76.60;;;67.20;;
57319;SDS011;43158;51.026;18.190;2022-10-22T14:40:48;79.00;;;70.50;;
57319;SDS011;43158;51.026;18.190;2022-10-22T14:43:25;80.70;;;71.90;;
57319;SDS011;43158;51.026;18.190;2022-10-22T14:45:53;82.30;;;73.50;;
57319;SDS011;43158;51.026;18.190;2022-10-22T14:48:19;78.40;;;69.60;;
57319;SDS011;43158;51.026;18.190;2022-10-22T14:50:46;81.10;;;72.10;;
57319;SDS011;43158;51.026;18.190;2022-10-22T14:53:12;81.10;;;72.40;;
57319;SDS011;43158;51.026;18.190;2022-10-22T14:55:39;81.90;;;73.00;;
57319;SDS011;43158;51.026;18.190;2022-10-22T14:58:07;85.90;;;74.50;;
57319;SDS011;43158;51.026;18.190;2022-10-22T15:00:33;81.10;;;72.30;;
57319;SDS011;43158;51.026;18.190;2022-10-22T15:03:01;84.10;;;74.90;;
57319;SDS011;43158;51.026;18.190;2022-10-22T15:05:28;84.60;;;75.60;;
57319;SDS011;43158;51.026;18.190;2022-10-22T15:07:54;80.60;;;71.90;;
57319;SDS011;43158;51.026;18.190;2022-10-22T15:10:20;83.80;;;75.00;;
57319;SDS011;43158;51.026;18.190;2022-10-22T15:12:46;80.50;;;71.90;;
57319;SDS011;43158;51.026;18.190;2022-10-22T15:15:12;78.60;;;68.60;;
57319;SDS011;43158;51.026;18.190;2022-10-22T15:17:38;71.50;;;64.00;;
57319;SDS011;43158;51.026;18.190;2022-10-22T15:20:05;75.60;;;67.50;;
57319;SDS011;43158;51.026;18.190;2022-10-22T15:22:31;73.00;;;64.20;;
57319;SDS011;43158;51.026;18.190;2022-10-22T15:25:00;70.70;;;63.20;;
57319;SDS011;43158;51.026;18.190;2022-10-22T15:27:28;71.50;;;64.00;;
57319;SDS011;43158;51.026;18.190;2022-10-22T15:29:55;74.80;;;67.00;;
57319;SDS011;43158;51.026;18.190;2022-10-22T15:32:26;70.40;;;62.80;;
57319;SDS011;43158;51.026;18.190;2022-10-22T15:34:53;81.60;;;70.10;;
57319;SDS011;43158;51.026;18.190;2022-10-22T15:37:20;80.10;;;67.10;;
57319;SDS011;43158;51.026;18.190;2022-10-22T15:39:47;69.40;;;62.10;;
57319;SDS011;43158;51.026;18.190;2022-10-22T15:42:13;74.30;;;65.50;;
57319;SDS011;43158;51.026;18.190;2022-10-22T15:44:40;72.40;;;63.70;;
57319;SDS011;43158;51.026;18.190;2022-10-22T15:47:06;73.80;;;65.90;;
57319;SDS011;43158;51.026;18.190;2022-10-22T15:49:33;74.60;;;66.60;;
57319;SDS011;43158;51.026;18.190;2022-10-22T15:54:28;84.70;;;72.40;;
57319;SDS011;43158;51.026;18.190;2022-10-22T15:56:55;84.40;;;75.00;;
57319;SDS011;43158;51.026;18.190;2022-10-22T15:59:22;77.10;;;68.80;;
57319;SDS011;43158;51.026;18.190;2022-10-22T16:01:49;76.30;;;68.20;;
57319;SDS011;43158;51.026;18.190;2022-10-22T16:04:15;82.00;;;71.70;;
57319;SDS011;43158;51.026;18.190;2022-10-22T16:06:48;82.10;;;73.30;;
57319;SDS011;43158;51.026;18.190;2022-10-22T16:09:20;88.90;;;72.60;;
57319;SDS011;43158;51.026;18.190;2022-10-22T16:11:48;79.30;;;68.80;;
57319;SDS011;43158;51.026;18.190;2022-10-22T16:14:16;73.90;;;64.50;;
57319;SDS011;43158;51.026;18.190;2022-10-22T16:16:45;67.60;;;60.20;;
57319;SDS011;43158;51.026;18.190;2022-10-22T16:19:17;69.10;;;61.80;;
57319;SDS011;43158;51.026;18.190;2022-10-22T16:21:51;66.00;;;59.00;;
57319;SDS011;43158;51.026;18.190;2022-10-22T16:24:21;64.40;;;55.10;;
57319;SDS011;43158;51.026;18.190;2022-10-22T16:26:47;68.70;;;59.40;;